sensor_id;sensor_type;location;lat;lon;timestamp;P1;durP1;ratioP1;P2;durP2;ratioP2
41468;SDS011;27206;47.032;15.484;2023-04-24T00:00:50;5.20;;;2.38;;
41468;SDS011;27206;47.032;15.484;2023-04-24T00:03:17;4.13;;;2.00;;
41468;SDS011;27206;47.032;15.484;2023-04-24T00:05:45;3.53;;;2.15;;
41468;SDS011;27206;47.032;15.484;2023-04-24T00:08:11;4.18;;;2.25;;
41468;SDS011;27206;47.032;15.484;2023-04-24T00:10:37;4.22;;;2.42;;
41468;SDS011;27206;47.032;15.484;2023-04-24T00:13:03;4.28;;;2.35;;
41468;SDS011;27206;47.032;15.484;2023-04-24T00:15:29;4.03;;;2.20;;
41468;SDS011;27206;47.032;15.484;2023-04-24T00:17:54;4.47;;;2.47;;
41468;SDS011;27206;47.032;15.484;2023-04-24T00:20:20;4.43;;;2.40;;
41468;SDS011;27206;47.032;15.484;2023-04-24T00:22:46;5.05;;;2.55;;
41468;SDS011;27206;47.032;15.484;2023-04-24T00:25:11;5.40;;;2.40;;
41468;SDS011;27206;47.032;15.484;2023-04-24T00:27:37;5.95;;;2.65;;
41468;SDS011;27206;47.032;15.484;2023-04-24T00:30:03;5.65;;;2.50;;
41468;SDS011;27206;47.032;15.484;2023-04-24T00:32:30;5.13;;;2.70;;
41468;SDS011;27206;47.032;15.484;2023-04-24T00:34:55;6.05;;;2.38;;
41468;SDS011;27206;47.032;15.484;2023-04-24T00:37:21;4.43;;;2.40;;
41468;SDS011;27206;47.032;15.484;2023-04-24T00:39:46;5.03;;;2.50;;
41468;SDS011;27206;47.032;15.484;2023-04-24T00:42:12;5.30;;;2.53;;
41468;SDS011;27206;47.032;15.484;2023-04-24T00:44:38;3.65;;;2.17;;
41468;SDS011;27206;47.032;15.484;2023-04-24T00:47:04;5.38;;;2.55;;
41468;SDS011;27206;47.032;15.484;2023-04-24T00:49:30;5.47;;;2.55;;
41468;SDS011;27206;47.032;15.484;2023-04-24T00:51:55;5.55;;;2.80;;
41468;SDS011;27206;47.032;15.484;2023-04-24T00:54:21;4.78;;;2.33;;
41468;SDS011;27206;47.032;15.484;2023-04-24T00:56:47;5.70;;;2.65;;
41468;SDS011;27206;47.032;15.484;2023-04-24T00:59:14;5.90;;;2.63;;
41468;SDS011;27206;47.032;15.484;2023-04-24T01:01:42;7.43;;;3.00;;
41468;SDS011;27206;47.032;15.484;2023-04-24T01:04:09;5.93;;;2.42;;
41468;SDS011;27206;47.032;15.484;2023-04-24T01:06:37;4.00;;;2.25;;
41468;SDS011;27206;47.032;15.484;2023-04-24T01:09:04;4.38;;;2.03;;
41468;SDS011;27206;47.032;15.484;2023-04-24T01:11:30;4.97;;;2.38;;
41468;SDS011;27206;47.032;15.484;2023-04-24T01:13:56;5.57;;;2.13;;
41468;SDS011;27206;47.032;15.484;2023-04-24T01:16:22;3.88;;;2.28;;
41468;SDS011;27206;47.032;15.484;2023-04-24T01:18:47;5.43;;;2.35;;
41468;SDS011;27206;47.032;15.484;2023-04-24T01:21:14;5.72;;;2.30;;
41468;SDS011;27206;47.032;15.484;2023-04-24T01:23:42;6.55;;;2.30;;
41468;SDS011;27206;47.032;15.484;2023-04-24T01:26:09;4.30;;;2.22;;
41468;SDS011;27206;47.032;15.484;2023-04-24T01:28:34;3.80;;;2.08;;
41468;SDS011;27206;47.032;15.484;2023-04-24T01:31:00;5.03;;;2.35;;
41468;SDS011;27206;47.032;15.484;2023-04-24T01:33:26;4.85;;;2.75;;
41468;SDS011;27206;47.032;15.484;2023-04-24T01:35:52;4.80;;;2.33;;
41468;SDS011;27206;47.032;15.484;2023-04-24T01:38:18;4.95;;;1.95;;
41468;SDS011;27206;47.032;15.484;2023-04-24T01:40:43;4.63;;;2.30;;
41468;SDS011;27206;47.032;15.484;2023-04-24T01:43:09;5.00;;;2.13;;
41468;SDS011;27206;47.032;15.484;2023-04-24T01:45:36;4.18;;;2.25;;
41468;SDS011;27206;47.032;15.484;2023-04-24T01:48:01;3.85;;;1.95;;
41468;SDS011;27206;47.032;15.484;2023-04-24T01:50:27;6.28;;;2.63;;
41468;SDS011;27206;47.032;15.484;2023-04-24T01:52:53;4.72;;;2.00;;
41468;SDS011;27206;47.032;15.484;2023-04-24T01:55:19;4.57;;;2.35;;
41468;SDS011;27206;47.032;15.484;2023-04-24T01:57:44;5.53;;;2.30;;
41468;SDS011;27206;47.032;15.484;2023-04-24T02:00:10;4.53;;;2.47;;
41468;SDS011;27206;47.032;15.484;2023-04-24T02:02:37;3.58;;;1.90;;
41468;SDS011;27206;47.032;15.484;2023-04-24T02:05:05;7.53;;;2.15;;
41468;SDS011;27206;47.032;15.484;2023-04-24T02:07:32;5.55;;;2.55;;
41468;SDS011;27206;47.032;15.484;2023-04-24T02:09:58;4.07;;;2.33;;
41468;SDS011;27206;47.032;15.484;2023-04-24T02:12:23;5.57;;;2.65;;
41468;SDS011;27206;47.032;15.484;2023-04-24T02:14:49;3.70;;;2.10;;
41468;SDS011;27206;47.032;15.484;2023-04-24T02:17:15;4.63;;;2.10;;
41468;SDS011;27206;47.032;15.484;2023-04-24T02:19:41;4.47;;;2.33;;
41468;SDS011;27206;47.032;15.484;2023-04-24T02:22:07;4.78;;;2.10;;
41468;SDS011;27206;47.032;15.484;2023-04-24T02:24:32;4.18;;;2.33;;
41468;SDS011;27206;47.032;15.484;2023-04-24T02:26:58;3.38;;;1.95;;
41468;SDS011;27206;47.032;15.484;2023-04-24T02:29:26;3.90;;;2.15;;
41468;SDS011;27206;47.032;15.484;2023-04-24T02:31:51;4.70;;;2.33;;
41468;SDS011;27206;47.032;15.484;2023-04-24T02:34:17;3.47;;;1.80;;
41468;SDS011;27206;47.032;15.484;2023-04-24T02:36:42;4.53;;;2.08;;
41468;SDS011;27206;47.032;15.484;2023-04-24T02:39:08;3.92;;;2.08;;
41468;SDS011;27206;47.032;15.484;2023-04-24T02:41:34;4.78;;;2.25;;
41468;SDS011;27206;47.032;15.484;2023-04-24T02:44:00;4.72;;;2.20;;
41468;SDS011;27206;47.032;15.484;2023-04-24T02:46:25;5.40;;;2.13;;
41468;SDS011;27206;47.032;15.484;2023-04-24T02:48:51;3.58;;;1.80;;
41468;SDS011;27206;47.032;15.484;2023-04-24T02:51:17;6.10;;;2.35;;
41468;SDS011;27206;47.032;15.484;2023-04-24T02:53:42;4.47;;;2.05;;
41468;SDS011;27206;47.032;15.484;2023-04-24T02:56:08;4.13;;;2.05;;
41468;SDS011;27206;47.032;15.484;2023-04-24T02:58:37;5.00;;;2.10;;
41468;SDS011;27206;47.032;15.484;2023-04-24T03:01:02;4.25;;;2.25;;
41468;SDS011;27206;47.032;15.484;2023-04-24T03:03:28;5.07;;;2.03;;
41468;SDS011;27206;47.032;15.484;2023-04-24T03:05:54;4.72;;;2.10;;
41468;SDS011;27206;47.032;15.484;2023-04-24T03:08:21;5.05;;;2.60;;
41468;SDS011;27206;47.032;15.484;2023-04-24T03:10:47;3.70;;;1.98;;
41468;SDS011;27206;47.032;15.484;2023-04-24T03:13:13;5.72;;;2.60;;
41468;SDS011;27206;47.032;15.484;2023-04-24T03:15:40;6.10;;;2.35;;
41468;SDS011;27206;47.032;15.484;2023-04-24T03:18:05;4.53;;;2.00;;
41468;SDS011;27206;47.032;15.484;2023-04-24T03:20:31;4.80;;;2.60;;
41468;SDS011;27206;47.032;15.484;2023-04-24T03:22:56;4.80;;;2.65;;
41468;SDS011;27206;47.032;15.484;2023-04-24T03:25:22;4.15;;;2.20;;
41468;SDS011;27206;47.032;15.484;2023-04-24T03:27:48;5.63;;;2.42;;
41468;SDS011;27206;47.032;15.484;2023-04-24T03:30:13;4.50;;;2.30;;
41468;SDS011;27206;47.032;15.484;2023-04-24T03:32:39;3.50;;;2.20;;
41468;SDS011;27206;47.032;15.484;2023-04-24T03:35:06;3.85;;;1.95;;
41468;SDS011;27206;47.032;15.484;2023-04-24T03:37:33;4.57;;;2.20;;
41468;SDS011;27206;47.032;15.484;2023-04-24T03:39:59;6.18;;;2.47;;
41468;SDS011;27206;47.032;15.484;2023-04-24T03:42:24;5.25;;;2.50;;
41468;SDS011;27206;47.032;15.484;2023-04-24T03:44:50;4.72;;;2.33;;
41468;SDS011;27206;47.032;15.484;2023-04-24T03:47:16;4.53;;;2.10;;
41468;SDS011;27206;47.032;15.484;2023-04-24T03:49:41;9.02;;;2.33;;
41468;SDS011;27206;47.032;15.484;2023-04-24T03:52:07;4.15;;;2.30;;
41468;SDS011;27206;47.032;15.484;2023-04-24T03:54:32;4.50;;;2.33;;
41468;SDS011;27206;47.032;15.484;2023-04-24T03:56:58;4.57;;;2.60;;
41468;SDS011;27206;47.032;15.484;2023-04-24T03:59:24;4.80;;;2.28;;
41468;SDS011;27206;47.032;15.484;2023-04-24T04:01:49;5.65;;;2.53;;
41468;SDS011;27206;47.032;15.484;2023-04-24T04:04:15;5.93;;;2.45;;
41468;SDS011;27206;47.032;15.484;2023-04-24T04:06:41;5.97;;;2.95;;
41468;SDS011;27206;47.032;15.484;2023-04-24T04:09:09;5.70;;;2.40;;
41468;SDS011;27206;47.032;15.484;2023-04-24T04:11:35;5.85;;;2.60;;
41468;SDS011;27206;47.032;15.484;2023-04-24T04:14:01;4.53;;;2.38;;
41468;SDS011;27206;47.032;15.484;2023-04-24T04:16:26;5.18;;;2.45;;
41468;SDS011;27206;47.032;15.484;2023-04-24T04:18:52;8.13;;;2.78;;
41468;SDS011;27206;47.032;15.484;2023-04-24T04:21:17;7.82;;;2.50;;
41468;SDS011;27206;47.032;15.484;2023-04-24T04:23:43;5.22;;;2.65;;
41468;SDS011;27206;47.032;15.484;2023-04-24T04:26:09;5.25;;;3.00;;
41468;SDS011;27206;47.032;15.484;2023-04-24T04:28:36;5.25;;;2.58;;
41468;SDS011;27206;47.032;15.484;2023-04-24T04:31:02;5.80;;;2.78;;
41468;SDS011;27206;47.032;15.484;2023-04-24T04:33:29;5.38;;;2.72;;
41468;SDS011;27206;47.032;15.484;2023-04-24T04:35:57;8.00;;;3.60;;
41468;SDS011;27206;47.032;15.484;2023-04-24T04:38:23;7.65;;;3.80;;
41468;SDS011;27206;47.032;15.484;2023-04-24T04:40:50;8.68;;;3.67;;
41468;SDS011;27206;47.032;15.484;2023-04-24T04:43:16;6.57;;;3.60;;
41468;SDS011;27206;47.032;15.484;2023-04-24T04:45:41;11.80;;;4.45;;
41468;SDS011;27206;47.032;15.484;2023-04-24T04:48:08;7.97;;;3.22;;
41468;SDS011;27206;47.032;15.484;2023-04-24T04:50:34;6.40;;;3.40;;
41468;SDS011;27206;47.032;15.484;2023-04-24T04:53:00;8.43;;;3.47;;
41468;SDS011;27206;47.032;15.484;2023-04-24T04:55:26;7.07;;;3.20;;
41468;SDS011;27206;47.032;15.484;2023-04-24T04:57:52;8.75;;;3.75;;
41468;SDS011;27206;47.032;15.484;2023-04-24T05:00:17;9.52;;;3.55;;
41468;SDS011;27206;47.032;15.484;2023-04-24T05:02:44;8.02;;;3.40;;
41468;SDS011;27206;47.032;15.484;2023-04-24T05:05:09;7.65;;;3.58;;
41468;SDS011;27206;47.032;15.484;2023-04-24T05:07:35;7.93;;;4.00;;
41468;SDS011;27206;47.032;15.484;2023-04-24T05:10:01;9.32;;;3.65;;
41468;SDS011;27206;47.032;15.484;2023-04-24T05:12:27;7.55;;;3.63;;
41468;SDS011;27206;47.032;15.484;2023-04-24T05:14:53;11.60;;;3.88;;
41468;SDS011;27206;47.032;15.484;2023-04-24T05:17:18;7.70;;;3.20;;
41468;SDS011;27206;47.032;15.484;2023-04-24T05:19:44;7.47;;;3.30;;
41468;SDS011;27206;47.032;15.484;2023-04-24T05:22:11;7.60;;;3.58;;
41468;SDS011;27206;47.032;15.484;2023-04-24T05:24:37;8.60;;;3.85;;
41468;SDS011;27206;47.032;15.484;2023-04-24T05:27:03;7.82;;;4.00;;
41468;SDS011;27206;47.032;15.484;2023-04-24T05:29:32;8.10;;;3.50;;
41468;SDS011;27206;47.032;15.484;2023-04-24T05:31:58;8.80;;;3.50;;
41468;SDS011;27206;47.032;15.484;2023-04-24T05:34:24;6.78;;;3.58;;
41468;SDS011;27206;47.032;15.484;2023-04-24T05:36:50;7.97;;;4.10;;
41468;SDS011;27206;47.032;15.484;2023-04-24T05:39:16;8.82;;;3.85;;
41468;SDS011;27206;47.032;15.484;2023-04-24T05:41:41;8.45;;;4.18;;
41468;SDS011;27206;47.032;15.484;2023-04-24T05:44:07;7.13;;;3.78;;
41468;SDS011;27206;47.032;15.484;2023-04-24T05:46:33;10.20;;;3.80;;
41468;SDS011;27206;47.032;15.484;2023-04-24T05:48:58;8.55;;;4.07;;
41468;SDS011;27206;47.032;15.484;2023-04-24T05:51:24;8.68;;;3.53;;
41468;SDS011;27206;47.032;15.484;2023-04-24T05:53:51;7.35;;;3.55;;
41468;SDS011;27206;47.032;15.484;2023-04-24T05:56:16;9.68;;;3.05;;
41468;SDS011;27206;47.032;15.484;2023-04-24T05:58:42;8.35;;;3.67;;
41468;SDS011;27206;47.032;15.484;2023-04-24T06:01:08;7.60;;;3.55;;
41468;SDS011;27206;47.032;15.484;2023-04-24T06:03:34;7.28;;;3.40;;
41468;SDS011;27206;47.032;15.484;2023-04-24T06:06:00;7.78;;;3.88;;
41468;SDS011;27206;47.032;15.484;2023-04-24T06:08:25;8.38;;;4.00;;
41468;SDS011;27206;47.032;15.484;2023-04-24T06:10:51;9.93;;;4.13;;
41468;SDS011;27206;47.032;15.484;2023-04-24T06:13:17;9.43;;;3.55;;
41468;SDS011;27206;47.032;15.484;2023-04-24T06:15:43;7.03;;;3.80;;
41468;SDS011;27206;47.032;15.484;2023-04-24T06:18:09;7.00;;;3.80;;
41468;SDS011;27206;47.032;15.484;2023-04-24T06:20:37;6.80;;;3.60;;
41468;SDS011;27206;47.032;15.484;2023-04-24T06:23:04;7.78;;;4.10;;
41468;SDS011;27206;47.032;15.484;2023-04-24T06:25:29;9.45;;;3.88;;
41468;SDS011;27206;47.032;15.484;2023-04-24T06:27:55;9.15;;;3.70;;
41468;SDS011;27206;47.032;15.484;2023-04-24T06:30:22;7.82;;;3.42;;
41468;SDS011;27206;47.032;15.484;2023-04-24T06:32:47;6.10;;;3.47;;
41468;SDS011;27206;47.032;15.484;2023-04-24T06:35:13;7.07;;;3.42;;
41468;SDS011;27206;47.032;15.484;2023-04-24T06:37:39;11.02;;;3.83;;
41468;SDS011;27206;47.032;15.484;2023-04-24T06:40:06;7.65;;;4.05;;
41468;SDS011;27206;47.032;15.484;2023-04-24T06:42:32;6.80;;;3.80;;
41468;SDS011;27206;47.032;15.484;2023-04-24T06:44:58;9.25;;;4.00;;
41468;SDS011;27206;47.032;15.484;2023-04-24T06:47:24;7.63;;;4.40;;
41468;SDS011;27206;47.032;15.484;2023-04-24T06:49:49;10.05;;;4.50;;
41468;SDS011;27206;47.032;15.484;2023-04-24T06:52:17;10.07;;;4.57;;
41468;SDS011;27206;47.032;15.484;2023-04-24T06:54:43;9.45;;;5.13;;
41468;SDS011;27206;47.032;15.484;2023-04-24T06:57:09;6.60;;;4.03;;
41468;SDS011;27206;47.032;15.484;2023-04-24T06:59:35;8.13;;;4.80;;
41468;SDS011;27206;47.032;15.484;2023-04-24T07:02:01;7.38;;;3.65;;
41468;SDS011;27206;47.032;15.484;2023-04-24T07:04:27;9.05;;;4.10;;
41468;SDS011;27206;47.032;15.484;2023-04-24T07:06:54;6.82;;;3.80;;
41468;SDS011;27206;47.032;15.484;2023-04-24T07:09:21;9.52;;;4.45;;
41468;SDS011;27206;47.032;15.484;2023-04-24T07:11:48;7.30;;;3.88;;
41468;SDS011;27206;47.032;15.484;2023-04-24T07:14:15;7.53;;;3.90;;
41468;SDS011;27206;47.032;15.484;2023-04-24T07:16:41;7.80;;;4.03;;
41468;SDS011;27206;47.032;15.484;2023-04-24T07:19:07;8.15;;;3.80;;
41468;SDS011;27206;47.032;15.484;2023-04-24T07:21:32;11.43;;;3.97;;
41468;SDS011;27206;47.032;15.484;2023-04-24T07:23:58;8.32;;;3.92;;
41468;SDS011;27206;47.032;15.484;2023-04-24T07:26:25;7.30;;;4.10;;
41468;SDS011;27206;47.032;15.484;2023-04-24T07:28:51;6.30;;;3.38;;
41468;SDS011;27206;47.032;15.484;2023-04-24T07:31:17;10.07;;;4.25;;
41468;SDS011;27206;47.032;15.484;2023-04-24T07:33:42;10.05;;;4.00;;
41468;SDS011;27206;47.032;15.484;2023-04-24T07:36:08;8.32;;;4.03;;
41468;SDS011;27206;47.032;15.484;2023-04-24T07:38:40;11.20;;;4.30;;
41468;SDS011;27206;47.032;15.484;2023-04-24T07:41:08;9.85;;;4.40;;
41468;SDS011;27206;47.032;15.484;2023-04-24T07:43:34;9.32;;;4.20;;
41468;SDS011;27206;47.032;15.484;2023-04-24T07:46:00;7.10;;;3.97;;
41468;SDS011;27206;47.032;15.484;2023-04-24T07:48:26;8.10;;;3.95;;
41468;SDS011;27206;47.032;15.484;2023-04-24T07:50:52;10.88;;;4.22;;
41468;SDS011;27206;47.032;15.484;2023-04-24T07:53:18;8.45;;;4.57;;
41468;SDS011;27206;47.032;15.484;2023-04-24T07:55:44;7.10;;;3.83;;
41468;SDS011;27206;47.032;15.484;2023-04-24T07:58:09;10.05;;;3.95;;
41468;SDS011;27206;47.032;15.484;2023-04-24T08:00:35;8.48;;;4.28;;
41468;SDS011;27206;47.032;15.484;2023-04-24T08:03:01;7.93;;;3.60;;
41468;SDS011;27206;47.032;15.484;2023-04-24T08:05:27;7.18;;;3.67;;
41468;SDS011;27206;47.032;15.484;2023-04-24T08:07:53;7.25;;;3.88;;
41468;SDS011;27206;47.032;15.484;2023-04-24T08:10:20;8.35;;;3.65;;
41468;SDS011;27206;47.032;15.484;2023-04-24T08:12:47;8.68;;;4.18;;
41468;SDS011;27206;47.032;15.484;2023-04-24T08:15:13;8.63;;;4.03;;
41468;SDS011;27206;47.032;15.484;2023-04-24T08:17:38;7.03;;;3.88;;
41468;SDS011;27206;47.032;15.484;2023-04-24T08:20:04;10.73;;;4.57;;
41468;SDS011;27206;47.032;15.484;2023-04-24T08:22:30;6.80;;;3.92;;
41468;SDS011;27206;47.032;15.484;2023-04-24T08:24:56;9.00;;;3.83;;
41468;SDS011;27206;47.032;15.484;2023-04-24T08:27:26;10.55;;;3.72;;
41468;SDS011;27206;47.032;15.484;2023-04-24T08:29:52;9.30;;;4.00;;
41468;SDS011;27206;47.032;15.484;2023-04-24T08:32:18;9.13;;;3.58;;
41468;SDS011;27206;47.032;15.484;2023-04-24T08:34:44;7.63;;;3.78;;
41468;SDS011;27206;47.032;15.484;2023-04-24T08:37:10;10.85;;;4.25;;
41468;SDS011;27206;47.032;15.484;2023-04-24T08:39:36;10.90;;;4.32;;
41468;SDS011;27206;47.032;15.484;2023-04-24T08:42:02;8.38;;;4.32;;
41468;SDS011;27206;47.032;15.484;2023-04-24T08:44:32;11.90;;;4.43;;
41468;SDS011;27206;47.032;15.484;2023-04-24T08:46:59;7.80;;;3.63;;
41468;SDS011;27206;47.032;15.484;2023-04-24T08:49:26;8.85;;;4.07;;
41468;SDS011;27206;47.032;15.484;2023-04-24T08:51:53;11.25;;;3.80;;
41468;SDS011;27206;47.032;15.484;2023-04-24T08:54:20;9.13;;;4.10;;
41468;SDS011;27206;47.032;15.484;2023-04-24T08:56:46;7.85;;;4.00;;
41468;SDS011;27206;47.032;15.484;2023-04-24T08:59:14;8.98;;;3.92;;
41468;SDS011;27206;47.032;15.484;2023-04-24T09:01:40;8.13;;;3.70;;
41468;SDS011;27206;47.032;15.484;2023-04-24T09:04:08;8.48;;;4.20;;
41468;SDS011;27206;47.032;15.484;2023-04-24T09:06:44;9.00;;;4.03;;
41468;SDS011;27206;47.032;15.484;2023-04-24T09:09:10;11.45;;;4.88;;
41468;SDS011;27206;47.032;15.484;2023-04-24T09:11:36;7.78;;;3.90;;
41468;SDS011;27206;47.032;15.484;2023-04-24T09:14:02;10.07;;;4.63;;
41468;SDS011;27206;47.032;15.484;2023-04-24T09:16:29;8.73;;;4.10;;
41468;SDS011;27206;47.032;15.484;2023-04-24T09:18:55;10.18;;;4.82;;
41468;SDS011;27206;47.032;15.484;2023-04-24T09:21:21;8.95;;;4.45;;
41468;SDS011;27206;47.032;15.484;2023-04-24T09:23:57;10.05;;;4.55;;
41468;SDS011;27206;47.032;15.484;2023-04-24T09:26:26;10.27;;;4.40;;
41468;SDS011;27206;47.032;15.484;2023-04-24T09:28:56;10.15;;;4.72;;
41468;SDS011;27206;47.032;15.484;2023-04-24T09:31:22;11.60;;;4.40;;
41468;SDS011;27206;47.032;15.484;2023-04-24T09:34:03;10.18;;;5.15;;
41468;SDS011;27206;47.032;15.484;2023-04-24T09:36:33;10.43;;;4.70;;
41468;SDS011;27206;47.032;15.484;2023-04-24T09:39:03;9.23;;;3.55;;
41468;SDS011;27206;47.032;15.484;2023-04-24T09:41:43;7.82;;;3.80;;
41468;SDS011;27206;47.032;15.484;2023-04-24T09:44:14;5.32;;;2.58;;
41468;SDS011;27206;47.032;15.484;2023-04-24T09:46:41;4.65;;;2.33;;
41468;SDS011;27206;47.032;15.484;2023-04-24T09:49:09;3.30;;;1.77;;
41468;SDS011;27206;47.032;15.484;2023-04-24T09:51:36;4.00;;;1.92;;
41468;SDS011;27206;47.032;15.484;2023-04-24T09:54:03;3.25;;;1.33;;
41468;SDS011;27206;47.032;15.484;2023-04-24T09:56:35;3.45;;;1.45;;
41468;SDS011;27206;47.032;15.484;2023-04-24T09:59:10;3.47;;;1.55;;
41468;SDS011;27206;47.032;15.484;2023-04-24T10:01:37;2.28;;;1.20;;
41468;SDS011;27206;47.032;15.484;2023-04-24T10:04:03;2.78;;;1.30;;
41468;SDS011;27206;47.032;15.484;2023-04-24T10:06:31;2.53;;;1.30;;
41468;SDS011;27206;47.032;15.484;2023-04-24T10:09:00;2.25;;;1.00;;
41468;SDS011;27206;47.032;15.484;2023-04-24T10:11:26;1.90;;;1.08;;
41468;SDS011;27206;47.032;15.484;2023-04-24T10:13:53;3.05;;;1.00;;
41468;SDS011;27206;47.032;15.484;2023-04-24T10:16:18;2.00;;;0.95;;
41468;SDS011;27206;47.032;15.484;2023-04-24T10:18:47;1.70;;;0.77;;
41468;SDS011;27206;47.032;15.484;2023-04-24T10:21:14;2.35;;;0.90;;
41468;SDS011;27206;47.032;15.484;2023-04-24T10:23:40;1.00;;;0.52;;
41468;SDS011;27206;47.032;15.484;2023-04-24T10:26:08;0.63;;;0.50;;
41468;SDS011;27206;47.032;15.484;2023-04-24T10:28:35;1.00;;;0.60;;
41468;SDS011;27206;47.032;15.484;2023-04-24T10:31:01;1.52;;;0.70;;
41468;SDS011;27206;47.032;15.484;2023-04-24T10:33:27;2.15;;;0.70;;
41468;SDS011;27206;47.032;15.484;2023-04-24T10:35:55;1.25;;;0.63;;
41468;SDS011;27206;47.032;15.484;2023-04-24T10:38:24;1.77;;;0.80;;
41468;SDS011;27206;47.032;15.484;2023-04-24T10:40:56;1.23;;;0.60;;
41468;SDS011;27206;47.032;15.484;2023-04-24T10:43:31;1.30;;;0.68;;
41468;SDS011;27206;47.032;15.484;2023-04-24T10:46:01;1.48;;;0.75;;
41468;SDS011;27206;47.032;15.484;2023-04-24T10:48:28;2.60;;;0.82;;
41468;SDS011;27206;47.032;15.484;2023-04-24T10:50:54;1.52;;;0.68;;
41468;SDS011;27206;47.032;15.484;2023-04-24T10:53:21;1.42;;;0.65;;
41468;SDS011;27206;47.032;15.484;2023-04-24T10:55:51;1.40;;;0.70;;
41468;SDS011;27206;47.032;15.484;2023-04-24T10:58:35;0.65;;;0.40;;
41468;SDS011;27206;47.032;15.484;2023-04-24T11:01:02;0.88;;;0.50;;
41468;SDS011;27206;47.032;15.484;2023-04-24T11:03:29;0.80;;;0.50;;
41468;SDS011;27206;47.032;15.484;2023-04-24T11:08:28;1.55;;;0.70;;
41468;SDS011;27206;47.032;15.484;2023-04-24T11:11:16;1.30;;;0.50;;
41468;SDS011;27206;47.032;15.484;2023-04-24T11:19:05;1.10;;;0.60;;
41468;SDS011;27206;47.032;15.484;2023-04-24T11:24:24;0.70;;;0.38;;
41468;SDS011;27206;47.032;15.484;2023-04-24T11:26:55;0.63;;;0.30;;
41468;SDS011;27206;47.032;15.484;2023-04-24T11:29:38;0.80;;;0.40;;
41468;SDS011;27206;47.032;15.484;2023-04-24T11:34:53;1.70;;;0.47;;
41468;SDS011;27206;47.032;15.484;2023-04-24T11:37:23;0.95;;;0.43;;
41468;SDS011;27206;47.032;15.484;2023-04-24T11:39:52;0.85;;;0.50;;
41468;SDS011;27206;47.032;15.484;2023-04-24T11:42:18;0.50;;;0.40;;
41468;SDS011;27206;47.032;15.484;2023-04-24T11:44:45;1.30;;;0.60;;
41468;SDS011;27206;47.032;15.484;2023-04-24T11:47:12;1.13;;;0.60;;
41468;SDS011;27206;47.032;15.484;2023-04-24T11:49:38;1.08;;;0.50;;
41468;SDS011;27206;47.032;15.484;2023-04-24T11:52:04;0.90;;;0.50;;
41468;SDS011;27206;47.032;15.484;2023-04-24T11:54:30;0.60;;;0.30;;
41468;SDS011;27206;47.032;15.484;2023-04-24T11:56:56;1.10;;;0.50;;
41468;SDS011;27206;47.032;15.484;2023-04-24T11:59:22;0.60;;;0.32;;
41468;SDS011;27206;47.032;15.484;2023-04-24T12:01:48;0.70;;;0.38;;
41468;SDS011;27206;47.032;15.484;2023-04-24T12:04:15;0.80;;;0.60;;
41468;SDS011;27206;47.032;15.484;2023-04-24T12:07:01;1.23;;;0.50;;
41468;SDS011;27206;47.032;15.484;2023-04-24T12:09:27;0.90;;;0.40;;
41468;SDS011;27206;47.032;15.484;2023-04-24T12:11:53;1.05;;;0.47;;
41468;SDS011;27206;47.032;15.484;2023-04-24T12:14:23;0.85;;;0.40;;
41468;SDS011;27206;47.032;15.484;2023-04-24T12:16:49;1.13;;;0.50;;
41468;SDS011;27206;47.032;15.484;2023-04-24T12:19:20;1.23;;;0.40;;
41468;SDS011;27206;47.032;15.484;2023-04-24T12:21:58;2.25;;;0.63;;
41468;SDS011;27206;47.032;15.484;2023-04-24T12:24:25;0.93;;;0.30;;
41468;SDS011;27206;47.032;15.484;2023-04-24T12:26:51;0.40;;;0.40;;
41468;SDS011;27206;47.032;15.484;2023-04-24T12:29:21;0.88;;;0.40;;
41468;SDS011;27206;47.032;15.484;2023-04-24T12:31:47;2.13;;;0.30;;
41468;SDS011;27206;47.032;15.484;2023-04-24T12:34:20;0.70;;;0.35;;
41468;SDS011;27206;47.032;15.484;2023-04-24T12:36:47;0.43;;;0.30;;
41468;SDS011;27206;47.032;15.484;2023-04-24T12:39:16;0.77;;;0.30;;
41468;SDS011;27206;47.032;15.484;2023-04-24T12:41:55;0.75;;;0.40;;
41468;SDS011;27206;47.032;15.484;2023-04-24T12:44:32;0.60;;;0.40;;
41468;SDS011;27206;47.032;15.484;2023-04-24T12:47:00;0.40;;;0.30;;
41468;SDS011;27206;47.032;15.484;2023-04-24T12:49:26;0.60;;;0.35;;
41468;SDS011;27206;47.032;15.484;2023-04-24T12:51:52;2.17;;;0.47;;
41468;SDS011;27206;47.032;15.484;2023-04-24T12:54:19;0.30;;;0.20;;
41468;SDS011;27206;47.032;15.484;2023-04-24T12:56:44;0.28;;;0.20;;
41468;SDS011;27206;47.032;15.484;2023-04-24T12:59:10;0.65;;;0.30;;
41468;SDS011;27206;47.032;15.484;2023-04-24T13:01:36;2.90;;;0.40;;
41468;SDS011;27206;47.032;15.484;2023-04-24T13:04:02;0.55;;;0.25;;
41468;SDS011;27206;47.032;15.484;2023-04-24T13:06:27;0.30;;;0.20;;
41468;SDS011;27206;47.032;15.484;2023-04-24T13:08:53;2.90;;;0.20;;
41468;SDS011;27206;47.032;15.484;2023-04-24T13:11:20;0.40;;;0.20;;
41468;SDS011;27206;47.032;15.484;2023-04-24T13:13:47;0.30;;;0.20;;
41468;SDS011;27206;47.032;15.484;2023-04-24T13:16:12;0.25;;;0.20;;
41468;SDS011;27206;47.032;15.484;2023-04-24T13:18:38;0.30;;;0.20;;
41468;SDS011;27206;47.032;15.484;2023-04-24T13:21:04;0.20;;;0.20;;
41468;SDS011;27206;47.032;15.484;2023-04-24T13:23:30;0.43;;;0.25;;
41468;SDS011;27206;47.032;15.484;2023-04-24T13:25:55;0.45;;;0.30;;
41468;SDS011;27206;47.032;15.484;2023-04-24T13:28:24;1.20;;;0.30;;
41468;SDS011;27206;47.032;15.484;2023-04-24T13:30:50;0.45;;;0.20;;
41468;SDS011;27206;47.032;15.484;2023-04-24T13:33:16;1.98;;;0.40;;
41468;SDS011;27206;47.032;15.484;2023-04-24T13:35:42;0.77;;;0.30;;
41468;SDS011;27206;47.032;15.484;2023-04-24T13:38:07;0.68;;;0.52;;
41468;SDS011;27206;47.032;15.484;2023-04-24T13:40:33;1.98;;;0.40;;
41468;SDS011;27206;47.032;15.484;2023-04-24T13:42:59;0.57;;;0.30;;
41468;SDS011;27206;47.032;15.484;2023-04-24T13:45:25;0.25;;;0.22;;
41468;SDS011;27206;47.032;15.484;2023-04-24T13:47:52;1.05;;;0.35;;
41468;SDS011;27206;47.032;15.484;2023-04-24T13:50:18;0.52;;;0.30;;
41468;SDS011;27206;47.032;15.484;2023-04-24T13:52:45;0.77;;;0.43;;
41468;SDS011;27206;47.032;15.484;2023-04-24T13:55:10;0.70;;;0.40;;
41468;SDS011;27206;47.032;15.484;2023-04-24T13:57:36;0.45;;;0.30;;
41468;SDS011;27206;47.032;15.484;2023-04-24T14:00:02;3.78;;;0.30;;
41468;SDS011;27206;47.032;15.484;2023-04-24T14:02:29;0.32;;;0.32;;
41468;SDS011;27206;47.032;15.484;2023-04-24T14:04:54;0.75;;;0.38;;
41468;SDS011;27206;47.032;15.484;2023-04-24T14:07:20;2.35;;;0.35;;
41468;SDS011;27206;47.032;15.484;2023-04-24T14:09:46;0.98;;;0.40;;
41468;SDS011;27206;47.032;15.484;2023-04-24T14:12:12;0.80;;;0.32;;
41468;SDS011;27206;47.032;15.484;2023-04-24T14:14:38;0.50;;;0.40;;
41468;SDS011;27206;47.032;15.484;2023-04-24T14:17:04;1.00;;;0.60;;
41468;SDS011;27206;47.032;15.484;2023-04-24T14:19:30;0.93;;;0.57;;
41468;SDS011;27206;47.032;15.484;2023-04-24T14:21:56;0.52;;;0.38;;
41468;SDS011;27206;47.032;15.484;2023-04-24T14:24:23;0.50;;;0.43;;
41468;SDS011;27206;47.032;15.484;2023-04-24T14:26:49;0.95;;;0.50;;
41468;SDS011;27206;47.032;15.484;2023-04-24T14:29:14;1.20;;;0.70;;
41468;SDS011;27206;47.032;15.484;2023-04-24T14:31:41;1.45;;;0.38;;
41468;SDS011;27206;47.032;15.484;2023-04-24T14:34:07;1.92;;;0.50;;
41468;SDS011;27206;47.032;15.484;2023-04-24T14:36:33;1.17;;;0.50;;
41468;SDS011;27206;47.032;15.484;2023-04-24T14:39:01;1.00;;;0.57;;
41468;SDS011;27206;47.032;15.484;2023-04-24T14:41:31;0.60;;;0.50;;
41468;SDS011;27206;47.032;15.484;2023-04-24T14:43:57;1.98;;;0.60;;